SFR323 FAEL-FACT
Flight info
| Callsign | SFR323 |
|---|---|
| Flight time | 1h 26m |
| Altitude | 36000 |
| Route | ELV DCT ESPOG UQ31 ESRUK UQ51 GETEN GETEN1A |
| Aircraft | B738/M-SDE2E3FGHIRWXY/LB1 |
Departure
| Time | 2026-05-03 21:25 |
|---|---|
| Airport | King Phalo Airport (FAEL) |
Arrival
| Time | 2026-05-03 22:51 |
|---|---|
| Airport | Cape Town International Airport (FACT) |
| Time | Latitude | Longitude | Altitude | Speed | Heading |
|---|---|---|---|---|---|
| 2026-05-03 21:08 | -33.03734 | 27.82824 | 422 ft | 0 kts | 171° |
| 2026-05-03 21:16 | -33.03727 | 27.82822 | 420 ft | 4 kts | 171° |
| 2026-05-03 21:17 | -33.03702 | 27.82818 | 415 ft | 3 kts | 178° |
| 2026-05-03 21:17 | -33.03693 | 27.82819 | 420 ft | 2 kts | 194° |
| 2026-05-03 21:17 | -33.03682 | 27.82829 | 410 ft | 2 kts | 256° |
| 2026-05-03 21:17 | -33.03680 | 27.82842 | 416 ft | 2 kts | 262° |
| 2026-05-03 21:18 | -33.03680 | 27.82845 | 416 ft | 0 kts | 262° |
| 2026-05-03 21:20 | -33.03681 | 27.82832 | 410 ft | 6 kts | 263° |
| 2026-05-03 21:20 | -33.03687 | 27.82775 | 420 ft | 7 kts | 252° |
| 2026-05-03 21:21 | -33.03706 | 27.82708 | 420 ft | 13 kts | 261° |
| 2026-05-03 21:21 | -33.03721 | 27.82599 | 423 ft | 13 kts | 245° |
| 2026-05-03 21:21 | -33.03792 | 27.82529 | 420 ft | 13 kts | 217° |
| 2026-05-03 21:21 | -33.03874 | 27.82457 | 420 ft | 19 kts | 216° |
| 2026-05-03 21:22 | -33.03991 | 27.82353 | 423 ft | 21 kts | 217° |
| 2026-05-03 21:22 | -33.04107 | 27.82252 | 426 ft | 20 kts | 216° |
| 2026-05-03 21:22 | -33.04159 | 27.82205 | 419 ft | 0 kts | 216° |
| 2026-05-03 21:23 | -33.04177 | 27.82190 | 416 ft | 6 kts | 216° |
| 2026-05-03 21:23 | -33.04225 | 27.82143 | 428 ft | 9 kts | 234° |
| 2026-05-03 21:23 | -33.04216 | 27.82072 | 425 ft | 9 kts | 302° |
| 2026-05-03 21:23 | -33.04188 | 27.82035 | 431 ft | 2 kts | 341° |
| 2026-05-03 21:24 | -33.04182 | 27.82040 | 425 ft | 0 kts | 37° |
| 2026-05-03 21:24 | -33.04137 | 27.82081 | 427 ft | 38 kts | 37° |
| 2026-05-03 21:24 | -33.03701 | 27.82468 | 425 ft | 116 kts | 37° |
| 2026-05-03 21:25 | -33.02866 | 27.83195 | 511 ft | 173 kts | 34° |
| 2026-05-03 21:25 | -33.01849 | 27.84065 | 1197 ft | 188 kts | 34° |
| 2026-05-03 21:25 | -33.00690 | 27.84805 | 2078 ft | 192 kts | 7° |
| 2026-05-03 21:25 | -32.99363 | 27.84733 | 2872 ft | 192 kts | 339° |
| 2026-05-03 21:26 | -32.98223 | 27.83969 | 3675 ft | 191 kts | 314° |
| 2026-05-03 21:26 | -32.97496 | 27.82659 | 4387 ft | 194 kts | 288° |
| 2026-05-03 21:26 | -32.97375 | 27.81056 | 5193 ft | 196 kts | 265° |
| 2026-05-03 21:26 | -32.97651 | 27.79347 | 5501 ft | 226 kts | 258° |
| 2026-05-03 21:27 | -32.98163 | 27.77449 | 5819 ft | 253 kts | 250° |
| 2026-05-03 21:27 | -32.98934 | 27.75418 | 6083 ft | 286 kts | 245° |
| 2026-05-03 21:27 | -32.99553 | 27.73969 | 6179 ft | 303 kts | 244° |
| 2026-05-03 21:27 | -33.00948 | 27.70895 | 6216 ft | 336 kts | 242° |
| 2026-05-03 21:28 | -33.01711 | 27.69263 | 6713 ft | 342 kts | 242° |
| 2026-05-03 21:28 | -33.02716 | 27.66725 | 7841 ft | 327 kts | 251° |
| 2026-05-03 21:28 | -33.03499 | 27.63484 | 9042 ft | 302 kts | 258° |
| 2026-05-03 21:28 | -33.03991 | 27.61029 | 9712 ft | 304 kts | 259° |
| 2026-05-03 21:29 | -33.04306 | 27.59389 | 10422 ft | 297 kts | 259° |
| 2026-05-03 21:29 | -33.04762 | 27.56990 | 11130 ft | 300 kts | 259° |
| 2026-05-03 21:29 | -33.05218 | 27.54588 | 11731 ft | 303 kts | 259° |
| 2026-05-03 21:29 | -33.05686 | 27.52121 | 12338 ft | 306 kts | 259° |
| 2026-05-03 21:30 | -33.06158 | 27.49642 | 12988 ft | 308 kts | 259° |
| 2026-05-03 21:30 | -33.06637 | 27.47137 | 13625 ft | 311 kts | 259° |
| 2026-05-03 21:30 | -33.07120 | 27.44613 | 14222 ft | 313 kts | 259° |
| 2026-05-03 21:30 | -33.07606 | 27.42074 | 14797 ft | 315 kts | 259° |
| 2026-05-03 21:31 | -33.08094 | 27.39522 | 15389 ft | 316 kts | 260° |
| 2026-05-03 21:31 | -33.08584 | 27.36956 | 16009 ft | 318 kts | 260° |
| 2026-05-03 21:31 | -33.09076 | 27.34380 | 16625 ft | 319 kts | 260° |
| 2026-05-03 21:31 | -33.09568 | 27.31802 | 17253 ft | 319 kts | 260° |
| 2026-05-03 21:32 | -33.10054 | 27.29251 | 17889 ft | 319 kts | 260° |
| 2026-05-03 21:32 | -33.10545 | 27.26675 | 18492 ft | 318 kts | 261° |
| 2026-05-03 21:32 | -33.11034 | 27.24102 | 19064 ft | 318 kts | 261° |
| 2026-05-03 21:32 | -33.11522 | 27.21535 | 19645 ft | 316 kts | 261° |
| 2026-05-03 21:33 | -33.12008 | 27.18975 | 20229 ft | 315 kts | 261° |
| 2026-05-03 21:33 | -33.12491 | 27.16425 | 20800 ft | 315 kts | 261° |
| 2026-05-03 21:33 | -33.12974 | 27.13868 | 21288 ft | 317 kts | 261° |
| 2026-05-03 21:33 | -33.13460 | 27.11295 | 21774 ft | 318 kts | 261° |
| 2026-05-03 21:34 | -33.13947 | 27.08715 | 22297 ft | 319 kts | 261° |
| 2026-05-03 21:34 | -33.14434 | 27.06131 | 22816 ft | 319 kts | 261° |
| 2026-05-03 21:34 | -33.14921 | 27.03549 | 23340 ft | 319 kts | 261° |
| 2026-05-03 21:34 | -33.15407 | 27.00965 | 23772 ft | 321 kts | 261° |
| 2026-05-03 21:35 | -33.15897 | 26.98349 | 24096 ft | 324 kts | 262° |
| 2026-05-03 21:35 | -33.16391 | 26.95716 | 24440 ft | 326 kts | 262° |
| 2026-05-03 21:35 | -33.16889 | 26.93060 | 24794 ft | 329 kts | 262° |
| 2026-05-03 21:35 | -33.17390 | 26.90387 | 25140 ft | 331 kts | 262° |
| 2026-05-03 21:36 | -33.17893 | 26.87694 | 25490 ft | 334 kts | 262° |
| 2026-05-03 21:36 | -33.18396 | 26.85017 | 25841 ft | 336 kts | 262° |
| 2026-05-03 21:36 | -33.19008 | 26.82305 | 26215 ft | 339 kts | 259° |
| 2026-05-03 21:36 | -33.19702 | 26.79608 | 26578 ft | 341 kts | 258° |
| 2026-05-03 21:37 | -33.20421 | 26.76906 | 26949 ft | 342 kts | 258° |
| 2026-05-03 21:37 | -33.21144 | 26.74197 | 27328 ft | 343 kts | 258° |
| 2026-05-03 21:37 | -33.21864 | 26.71482 | 27703 ft | 343 kts | 258° |
| 2026-05-03 21:37 | -33.22581 | 26.68755 | 28006 ft | 346 kts | 259° |
| 2026-05-03 21:38 | -33.23302 | 26.65991 | 28273 ft | 350 kts | 259° |
| 2026-05-03 21:38 | -33.24025 | 26.63204 | 28536 ft | 353 kts | 259° |
| 2026-05-03 21:38 | -33.24755 | 26.60387 | 28812 ft | 356 kts | 259° |
| 2026-05-03 21:38 | -33.25489 | 26.57547 | 29083 ft | 359 kts | 259° |
| 2026-05-03 21:39 | -33.26228 | 26.54684 | 29368 ft | 362 kts | 259° |
| 2026-05-03 21:39 | -33.26962 | 26.51838 | 29626 ft | 364 kts | 259° |
| 2026-05-03 21:39 | -33.27708 | 26.48942 | 29905 ft | 366 kts | 259° |
| 2026-05-03 21:39 | -33.28459 | 26.46023 | 30164 ft | 368 kts | 259° |
| 2026-05-03 21:40 | -33.29214 | 26.43089 | 30399 ft | 370 kts | 259° |
| 2026-05-03 21:40 | -33.29971 | 26.40142 | 30622 ft | 371 kts | 259° |
| 2026-05-03 21:40 | -33.30729 | 26.37184 | 30879 ft | 372 kts | 259° |
| 2026-05-03 21:40 | -33.31491 | 26.34212 | 31121 ft | 373 kts | 259° |
| 2026-05-03 21:41 | -33.32251 | 26.31240 | 31363 ft | 374 kts | 259° |
| 2026-05-03 21:41 | -33.33014 | 26.28256 | 31610 ft | 375 kts | 259° |
| 2026-05-03 21:41 | -33.33777 | 26.25269 | 31861 ft | 376 kts | 259° |
| 2026-05-03 21:41 | -33.34541 | 26.22275 | 32106 ft | 377 kts | 259° |
| 2026-05-03 21:42 | -33.35304 | 26.19279 | 32357 ft | 377 kts | 260° |
| 2026-05-03 21:42 | -33.36028 | 26.16272 | 32611 ft | 375 kts | 263° |
| 2026-05-03 21:42 | -33.36466 | 26.13257 | 32856 ft | 371 kts | 267° |
| 2026-05-03 21:42 | -33.36829 | 26.10169 | 33126 ft | 370 kts | 268° |
| 2026-05-03 21:43 | -33.37172 | 26.07153 | 33392 ft | 370 kts | 268° |
| 2026-05-03 21:43 | -33.37517 | 26.04109 | 33649 ft | 369 kts | 268° |
| 2026-05-03 21:43 | -33.37866 | 26.01056 | 33919 ft | 368 kts | 268° |
| 2026-05-03 21:43 | -33.38215 | 25.98026 | 34142 ft | 367 kts | 268° |
| 2026-05-03 21:44 | -33.38565 | 25.95000 | 34368 ft | 366 kts | 268° |
| 2026-05-03 21:44 | -33.38915 | 25.91989 | 34593 ft | 365 kts | 268° |
| 2026-05-03 21:44 | -33.39264 | 25.88987 | 34823 ft | 364 kts | 268° |
| 2026-05-03 21:44 | -33.39613 | 25.85989 | 35052 ft | 362 kts | 268° |
| 2026-05-03 21:45 | -33.39958 | 25.83017 | 35286 ft | 360 kts | 268° |
| 2026-05-03 21:45 | -33.40301 | 25.80060 | 35523 ft | 358 kts | 268° |
| 2026-05-03 21:45 | -33.40642 | 25.77120 | 35759 ft | 356 kts | 268° |
| 2026-05-03 21:45 | -33.40975 | 25.74229 | 35945 ft | 355 kts | 268° |
| 2026-05-03 21:46 | -33.41653 | 25.68307 | 35942 ft | 361 kts | 268° |
| 2026-05-03 21:46 | -33.42339 | 25.62299 | 35945 ft | 367 kts | 268° |
| 2026-05-03 21:47 | -33.43034 | 25.56189 | 35949 ft | 373 kts | 268° |
| 2026-05-03 21:47 | -33.43739 | 25.49977 | 35954 ft | 379 kts | 268° |
| 2026-05-03 21:48 | -33.44446 | 25.43722 | 35954 ft | 384 kts | 268° |
| 2026-05-03 21:48 | -33.45166 | 25.37329 | 35949 ft | 390 kts | 268° |
| 2026-05-03 21:49 | -33.45890 | 25.30861 | 35949 ft | 395 kts | 268° |
| 2026-05-03 21:49 | -33.46621 | 25.24305 | 35951 ft | 399 kts | 268° |
| 2026-05-03 21:50 | -33.47357 | 25.17678 | 35936 ft | 403 kts | 268° |
| 2026-05-03 21:50 | -33.48095 | 25.10997 | 35943 ft | 404 kts | 268° |
| 2026-05-03 21:51 | -33.48830 | 25.04314 | 35941 ft | 405 kts | 268° |
| 2026-05-03 21:51 | -33.49560 | 24.97636 | 35943 ft | 404 kts | 268° |
| 2026-05-03 21:52 | -33.50286 | 24.90965 | 35939 ft | 403 kts | 268° |
| 2026-05-03 21:52 | -33.51001 | 24.84357 | 35943 ft | 402 kts | 269° |
| 2026-05-03 21:53 | -33.51714 | 24.77727 | 35939 ft | 401 kts | 269° |
| 2026-05-03 21:53 | -33.52422 | 24.71112 | 35948 ft | 400 kts | 269° |
| 2026-05-03 21:54 | -33.53125 | 24.64505 | 35944 ft | 399 kts | 269° |
| 2026-05-03 21:54 | -33.53823 | 24.57924 | 35939 ft | 398 kts | 269° |
| 2026-05-03 21:55 | -33.54516 | 24.51341 | 35944 ft | 397 kts | 269° |
| 2026-05-03 21:55 | -33.55204 | 24.44774 | 35939 ft | 397 kts | 269° |
| 2026-05-03 21:56 | -33.55884 | 24.38261 | 35951 ft | 396 kts | 269° |
| 2026-05-03 21:56 | -33.56564 | 24.31717 | 35944 ft | 395 kts | 269° |
| 2026-05-03 21:57 | -33.57239 | 24.25171 | 35938 ft | 394 kts | 269° |
| 2026-05-03 21:57 | -33.57904 | 24.18665 | 35964 ft | 392 kts | 269° |
| 2026-05-03 21:58 | -33.58568 | 24.12165 | 35953 ft | 393 kts | 269° |
| 2026-05-03 21:58 | -33.59225 | 24.05697 | 35965 ft | 394 kts | 270° |
| 2026-05-03 21:59 | -33.59886 | 23.99153 | 35960 ft | 395 kts | 270° |
| 2026-05-03 21:59 | -33.60545 | 23.92606 | 35957 ft | 396 kts | 270° |
| 2026-05-03 22:00 | -33.61200 | 23.86038 | 35975 ft | 396 kts | 270° |
| 2026-05-03 22:00 | -33.61855 | 23.79469 | 35977 ft | 397 kts | 270° |
| 2026-05-03 22:01 | -33.62504 | 23.72909 | 35956 ft | 394 kts | 270° |
| 2026-05-03 22:01 | -33.63147 | 23.66375 | 35959 ft | 395 kts | 270° |
| 2026-05-03 22:02 | -33.63786 | 23.59841 | 35964 ft | 394 kts | 270° |
| 2026-05-03 22:02 | -33.64422 | 23.53300 | 35970 ft | 395 kts | 270° |
| 2026-05-03 22:03 | -33.65051 | 23.46792 | 35960 ft | 394 kts | 270° |
| 2026-05-03 22:03 | -33.65679 | 23.40265 | 35959 ft | 393 kts | 270° |
| 2026-05-03 22:04 | -33.66304 | 23.33745 | 35956 ft | 392 kts | 270° |
| 2026-05-03 22:04 | -33.66615 | 23.30498 | 35801 ft | 390 kts | 270° |
| 2026-05-03 22:04 | -33.66924 | 23.27265 | 35967 ft | 390 kts | 270° |
| 2026-05-03 22:05 | -33.67567 | 23.20835 | 35964 ft | 389 kts | 270° |
| 2026-05-03 22:05 | -33.68218 | 23.14372 | 35969 ft | 391 kts | 270° |
| 2026-05-03 22:06 | -33.68866 | 23.07868 | 35954 ft | 393 kts | 270° |
| 2026-05-03 22:06 | -33.69512 | 23.01343 | 35951 ft | 394 kts | 270° |
| 2026-05-03 22:07 | -33.70156 | 22.94811 | 35948 ft | 394 kts | 270° |
| 2026-05-03 22:07 | -33.70794 | 22.88287 | 35949 ft | 393 kts | 270° |
| 2026-05-03 22:08 | -33.71426 | 22.81796 | 35946 ft | 393 kts | 270° |
| 2026-05-03 22:08 | -33.72057 | 22.75278 | 35944 ft | 392 kts | 270° |
| 2026-05-03 22:09 | -33.72683 | 22.68769 | 35942 ft | 391 kts | 270° |
| 2026-05-03 22:10 | -33.73611 | 22.59053 | 35940 ft | 390 kts | 270° |
| 2026-05-03 22:10 | -33.74222 | 22.52618 | 35934 ft | 390 kts | 270° |
| 2026-05-03 22:11 | -33.74831 | 22.46147 | 35928 ft | 389 kts | 270° |
| 2026-05-03 22:11 | -33.75438 | 22.39690 | 35921 ft | 389 kts | 270° |
| 2026-05-03 22:12 | -33.76042 | 22.33226 | 35925 ft | 388 kts | 270° |
| 2026-05-03 22:12 | -33.76641 | 22.26775 | 35924 ft | 388 kts | 270° |
| 2026-05-03 22:13 | -33.77237 | 22.20315 | 35927 ft | 389 kts | 270° |
| 2026-05-03 22:13 | -33.77828 | 22.13890 | 35922 ft | 388 kts | 270° |
| 2026-05-03 22:14 | -33.78418 | 22.07425 | 35934 ft | 388 kts | 270° |
| 2026-05-03 22:14 | -33.78906 | 22.02052 | 35934 ft | 389 kts | 271° |
| 2026-05-03 22:15 | -33.79585 | 21.94536 | 35940 ft | 388 kts | 270° |
| 2026-05-03 22:15 | -33.80071 | 21.89121 | 35930 ft | 388 kts | 271° |
| 2026-05-03 22:16 | -33.80647 | 21.82670 | 35935 ft | 388 kts | 270° |
| 2026-05-03 22:16 | -33.81219 | 21.76215 | 35927 ft | 388 kts | 271° |
| 2026-05-03 22:17 | -33.81785 | 21.69808 | 35935 ft | 388 kts | 271° |
| 2026-05-03 22:17 | -33.82350 | 21.63364 | 35932 ft | 387 kts | 271° |
| 2026-05-03 22:18 | -33.82911 | 21.56919 | 35937 ft | 387 kts | 271° |
| 2026-05-03 22:18 | -33.83470 | 21.50475 | 35940 ft | 386 kts | 271° |
| 2026-05-03 22:19 | -33.84025 | 21.44046 | 35944 ft | 386 kts | 271° |
| 2026-05-03 22:19 | -33.84575 | 21.37611 | 35937 ft | 386 kts | 271° |
| 2026-05-03 22:20 | -33.85118 | 21.31217 | 35935 ft | 385 kts | 271° |
| 2026-05-03 22:20 | -33.85660 | 21.24803 | 35944 ft | 385 kts | 271° |
| 2026-05-03 22:21 | -33.86199 | 21.18383 | 35929 ft | 385 kts | 271° |
| 2026-05-03 22:21 | -33.86734 | 21.11968 | 35941 ft | 385 kts | 271° |
| 2026-05-03 22:22 | -33.87266 | 21.05559 | 35936 ft | 385 kts | 271° |
| 2026-05-03 22:22 | -33.87795 | 20.99145 | 35934 ft | 384 kts | 271° |
| 2026-05-03 22:23 | -33.88320 | 20.92740 | 35948 ft | 384 kts | 271° |
| 2026-05-03 22:23 | -33.88837 | 20.86375 | 35945 ft | 385 kts | 270° |
| 2026-05-03 22:24 | -33.89358 | 20.79945 | 35946 ft | 386 kts | 271° |
| 2026-05-03 22:24 | -33.89876 | 20.73502 | 35937 ft | 386 kts | 271° |
| 2026-05-03 22:25 | -33.90390 | 20.67069 | 35932 ft | 386 kts | 271° |
| 2026-05-03 22:25 | -33.90646 | 20.63830 | 35392 ft | 388 kts | 271° |
| 2026-05-03 22:25 | -33.90902 | 20.60627 | 34785 ft | 381 kts | 271° |
| 2026-05-03 22:25 | -33.91155 | 20.57476 | 34202 ft | 375 kts | 271° |
| 2026-05-03 22:26 | -33.91401 | 20.54375 | 33531 ft | 369 kts | 271° |
| 2026-05-03 22:26 | -33.91640 | 20.51356 | 32855 ft | 363 kts | 271° |
| 2026-05-03 22:26 | -33.91876 | 20.48353 | 32201 ft | 357 kts | 271° |
| 2026-05-03 22:26 | -33.92106 | 20.45397 | 31572 ft | 354 kts | 271° |
| 2026-05-03 22:27 | -33.92334 | 20.42391 | 30953 ft | 368 kts | 271° |
| 2026-05-03 22:27 | -33.92566 | 20.39232 | 30251 ft | 391 kts | 271° |
| 2026-05-03 22:27 | -33.92814 | 20.35888 | 29381 ft | 406 kts | 271° |
| 2026-05-03 22:27 | -33.93074 | 20.32500 | 28503 ft | 406 kts | 270° |
| 2026-05-03 22:28 | -33.93340 | 20.29103 | 27691 ft | 406 kts | 270° |
| 2026-05-03 22:28 | -33.93605 | 20.25720 | 27057 ft | 402 kts | 270° |
| 2026-05-03 22:28 | -33.93865 | 20.22387 | 26454 ft | 398 kts | 270° |
| 2026-05-03 22:28 | -33.94119 | 20.19083 | 25879 ft | 393 kts | 270° |
| 2026-05-03 22:29 | -33.94367 | 20.15821 | 25322 ft | 389 kts | 270° |
| 2026-05-03 22:29 | -33.94611 | 20.12583 | 24757 ft | 386 kts | 270° |
| 2026-05-03 22:29 | -33.94851 | 20.09380 | 24209 ft | 383 kts | 270° |
| 2026-05-03 22:29 | -33.95085 | 20.06233 | 23650 ft | 380 kts | 270° |
| 2026-05-03 22:30 | -33.95321 | 20.03066 | 23017 ft | 378 kts | 270° |
| 2026-05-03 22:30 | -33.95553 | 19.99930 | 22428 ft | 374 kts | 270° |
| 2026-05-03 22:30 | -33.95783 | 19.96829 | 21883 ft | 370 kts | 270° |
| 2026-05-03 22:30 | -33.96008 | 19.93762 | 21331 ft | 366 kts | 270° |
| 2026-05-03 22:31 | -33.96233 | 19.90711 | 20791 ft | 363 kts | 270° |
| 2026-05-03 22:31 | -33.96455 | 19.87694 | 20250 ft | 360 kts | 270° |
| 2026-05-03 22:31 | -33.96674 | 19.84694 | 19729 ft | 357 kts | 269° |
| 2026-05-03 22:31 | -33.97087 | 19.81728 | 19205 ft | 362 kts | 262° |
| 2026-05-03 22:32 | -33.97827 | 19.78807 | 18545 ft | 370 kts | 255° |
| 2026-05-03 22:32 | -33.98946 | 19.75962 | 17674 ft | 380 kts | 249° |
| 2026-05-03 22:32 | -34.00176 | 19.73165 | 16969 ft | 382 kts | 248° |
| 2026-05-03 22:32 | -34.01417 | 19.70352 | 16415 ft | 377 kts | 247° |
| 2026-05-03 22:33 | -34.02630 | 19.67563 | 15835 ft | 374 kts | 249° |
| 2026-05-03 22:33 | -34.03825 | 19.64786 | 15288 ft | 372 kts | 249° |
| 2026-05-03 22:33 | -34.04972 | 19.62044 | 15071 ft | 358 kts | 252° |
| 2026-05-03 22:33 | -34.05785 | 19.59289 | 14963 ft | 339 kts | 260° |
| 2026-05-03 22:34 | -34.06218 | 19.56585 | 14947 ft | 319 kts | 267° |
| 2026-05-03 22:34 | -34.06519 | 19.53993 | 14793 ft | 308 kts | 267° |
| 2026-05-03 22:34 | -34.06811 | 19.51394 | 14170 ft | 315 kts | 267° |
| 2026-05-03 22:34 | -34.07105 | 19.48773 | 13581 ft | 314 kts | 267° |
| 2026-05-03 22:35 | -34.07400 | 19.46174 | 12942 ft | 311 kts | 267° |
| 2026-05-03 22:35 | -34.07690 | 19.43638 | 12328 ft | 308 kts | 266° |
| 2026-05-03 22:35 | -34.07982 | 19.41097 | 11705 ft | 305 kts | 266° |
| 2026-05-03 22:35 | -34.08271 | 19.38576 | 11103 ft | 302 kts | 266° |
| 2026-05-03 22:36 | -34.08559 | 19.36071 | 10502 ft | 300 kts | 266° |
| 2026-05-03 22:36 | -34.08844 | 19.33589 | 9922 ft | 298 kts | 266° |
| 2026-05-03 22:36 | -34.09128 | 19.31120 | 9306 ft | 295 kts | 266° |
| 2026-05-03 22:36 | -34.09407 | 19.28698 | 8923 ft | 288 kts | 266° |
| 2026-05-03 22:37 | -34.09681 | 19.26307 | 8578 ft | 287 kts | 266° |
| 2026-05-03 22:37 | -34.09952 | 19.23939 | 8337 ft | 282 kts | 266° |
| 2026-05-03 22:37 | -34.10218 | 19.21610 | 8083 ft | 279 kts | 266° |
| 2026-05-03 22:37 | -34.10480 | 19.19314 | 7824 ft | 274 kts | 266° |
| 2026-05-03 22:38 | -34.10738 | 19.17047 | 7587 ft | 270 kts | 266° |
| 2026-05-03 22:38 | -34.10991 | 19.14819 | 7328 ft | 266 kts | 266° |
| 2026-05-03 22:38 | -34.11240 | 19.12629 | 7090 ft | 262 kts | 266° |
| 2026-05-03 22:38 | -34.11484 | 19.10471 | 6866 ft | 257 kts | 266° |
| 2026-05-03 22:39 | -34.11719 | 19.08385 | 6586 ft | 250 kts | 266° |
| 2026-05-03 22:39 | -34.11951 | 19.06343 | 6374 ft | 243 kts | 266° |
| 2026-05-03 22:39 | -34.12177 | 19.04347 | 6098 ft | 237 kts | 267° |
| 2026-05-03 22:39 | -34.12396 | 19.02416 | 5870 ft | 226 kts | 267° |
| 2026-05-03 22:40 | -34.12604 | 19.00582 | 5608 ft | 216 kts | 268° |
| 2026-05-03 22:40 | -34.12802 | 18.98823 | 5338 ft | 208 kts | 268° |
| 2026-05-03 22:40 | -34.12993 | 18.97129 | 5096 ft | 198 kts | 269° |
| 2026-05-03 22:40 | -34.13174 | 18.95510 | 4862 ft | 193 kts | 269° |
| 2026-05-03 22:41 | -34.13352 | 18.93904 | 4651 ft | 194 kts | 269° |
| 2026-05-03 22:41 | -34.13530 | 18.92263 | 4386 ft | 199 kts | 268° |
| 2026-05-03 22:41 | -34.13713 | 18.90620 | 4112 ft | 196 kts | 268° |
| 2026-05-03 22:41 | -34.13894 | 18.89006 | 3848 ft | 193 kts | 269° |
| 2026-05-03 22:42 | -34.14072 | 18.87406 | 3609 ft | 192 kts | 269° |
| 2026-05-03 22:42 | -34.14249 | 18.85804 | 3363 ft | 192 kts | 268° |
| 2026-05-03 22:42 | -34.14427 | 18.84204 | 3114 ft | 192 kts | 269° |
| 2026-05-03 22:42 | -34.14601 | 18.82643 | 2992 ft | 182 kts | 269° |
| 2026-05-03 22:43 | -34.14764 | 18.81194 | 3001 ft | 170 kts | 270° |
| 2026-05-03 22:43 | -34.14920 | 18.79785 | 2982 ft | 169 kts | 269° |
| 2026-05-03 22:43 | -34.15074 | 18.78380 | 2976 ft | 169 kts | 269° |
| 2026-05-03 22:43 | -34.15228 | 18.76983 | 2986 ft | 167 kts | 269° |
| 2026-05-03 22:44 | -34.15381 | 18.75593 | 2976 ft | 167 kts | 269° |
| 2026-05-03 22:44 | -34.15532 | 18.74231 | 3015 ft | 159 kts | 270° |
| 2026-05-03 22:44 | -34.15677 | 18.72914 | 2987 ft | 157 kts | 270° |
| 2026-05-03 22:44 | -34.15822 | 18.71581 | 2994 ft | 160 kts | 270° |
| 2026-05-03 22:45 | -34.15967 | 18.70272 | 2977 ft | 155 kts | 270° |
| 2026-05-03 22:45 | -34.16077 | 18.69004 | 2960 ft | 147 kts | 281° |
| 2026-05-03 22:45 | -34.15807 | 18.67823 | 2976 ft | 148 kts | 298° |
| 2026-05-03 22:45 | -34.15257 | 18.66807 | 2987 ft | 143 kts | 314° |
| 2026-05-03 22:46 | -34.14510 | 18.66043 | 2981 ft | 143 kts | 329° |
| 2026-05-03 22:46 | -34.13563 | 18.65689 | 2990 ft | 144 kts | 344° |
| 2026-05-03 22:46 | -34.12584 | 18.65369 | 2884 ft | 147 kts | 342° |
| 2026-05-03 22:46 | -34.11615 | 18.65046 | 2705 ft | 137 kts | 343° |
| 2026-05-03 22:47 | -34.10739 | 18.64761 | 2524 ft | 124 kts | 344° |
| 2026-05-03 22:47 | -34.09920 | 18.64496 | 2359 ft | 122 kts | 344° |
| 2026-05-03 22:47 | -34.09089 | 18.64227 | 2200 ft | 125 kts | 343° |
| 2026-05-03 22:47 | -34.08247 | 18.63955 | 2044 ft | 125 kts | 343° |
| 2026-05-03 22:48 | -34.07406 | 18.63683 | 1870 ft | 126 kts | 343° |
| 2026-05-03 22:48 | -34.06559 | 18.63409 | 1713 ft | 126 kts | 344° |
| 2026-05-03 22:48 | -34.05707 | 18.63137 | 1511 ft | 130 kts | 344° |
| 2026-05-03 22:48 | -34.04829 | 18.62843 | 1365 ft | 129 kts | 344° |
| 2026-05-03 22:49 | -34.03968 | 18.62557 | 1181 ft | 127 kts | 345° |
| 2026-05-03 22:49 | -34.03100 | 18.62263 | 1004 ft | 132 kts | 345° |
| 2026-05-03 22:49 | -34.02211 | 18.61963 | 841 ft | 134 kts | 346° |
| 2026-05-03 22:49 | -34.01306 | 18.61684 | 689 ft | 134 kts | 348° |
| 2026-05-03 22:50 | -34.00428 | 18.61411 | 527 ft | 130 kts | 347° |
| 2026-05-03 22:50 | -33.99552 | 18.61132 | 372 ft | 131 kts | 347° |
| 2026-05-03 22:50 | -33.98667 | 18.60847 | 182 ft | 129 kts | 349° |
| 2026-05-03 22:50 | -33.97892 | 18.60609 | 155 ft | 96 kts | 346° |
| 2026-05-03 22:51 | -33.97393 | 18.60451 | 155 ft | 52 kts | 345° |
| 2026-05-03 22:51 | -33.97171 | 18.60363 | 160 ft | 25 kts | 327° |
| 2026-05-03 22:51 | -33.97101 | 18.60210 | 164 ft | 11 kts | 285° |
| 2026-05-03 22:51 | -33.97080 | 18.60123 | 166 ft | 11 kts | 285° |
| 2026-05-03 22:52 | -33.97072 | 18.60085 | 166 ft | 3 kts | 285° |
| 2026-05-03 22:52 | -33.97071 | 18.60082 | 166 ft | 0 kts | 285° |
| 2026-05-03 22:54 | -33.97066 | 18.60060 | 166 ft | 6 kts | 285° |
| 2026-05-03 22:54 | -33.97055 | 18.60013 | 166 ft | 3 kts | 285° |
| 2026-05-03 22:54 | -33.97047 | 18.59983 | 166 ft | 6 kts | 290° |
| 2026-05-03 22:54 | -33.97004 | 18.59937 | 166 ft | 9 kts | 343° |
| 2026-05-03 22:55 | -33.96946 | 18.59916 | 166 ft | 9 kts | 344° |
| 2026-05-03 22:55 | -33.96888 | 18.59898 | 166 ft | 8 kts | 346° |
| 2026-05-03 22:55 | -33.96851 | 18.59886 | 166 ft | 0 kts | 344° |
| 2026-05-03 22:56 | -33.96837 | 18.59881 | 166 ft | 6 kts | 343° |
| 2026-05-03 22:56 | -33.96789 | 18.59865 | 166 ft | 9 kts | 345° |
| 2026-05-03 22:56 | -33.96722 | 18.59844 | 166 ft | 10 kts | 345° |
| 2026-05-03 22:56 | -33.96656 | 18.59822 | 166 ft | 10 kts | 344° |
| 2026-05-03 22:57 | -33.96628 | 18.59805 | 166 ft | 1 kts | 293° |
| 2026-05-03 22:57 | -33.96626 | 18.59792 | 166 ft | 3 kts | 275° |
| 2026-05-03 22:57 | -33.96634 | 18.59753 | 166 ft | 5 kts | 255° |
| 2026-05-03 22:57 | -33.96639 | 18.59730 | 166 ft | 1 kts | 255° |
| 2026-05-03 22:58 | -33.96641 | 18.59721 | 166 ft | 1 kts | 255° |
| 2026-05-03 22:58 | -33.96641 | 18.59718 | 166 ft | 0 kts | 254° |